Fechtig, South Carolina
Current Conditions -  °F | °C
As of 1:56 PM on Tuesday 27 Jan 2015 (Local Time) from KNBC Reporting Station
Broken Clouds Broken Clouds  
Wind Chill: 50°   Ceiling: 4700
Heat Index: 50°   Visibility: 10mi
Dew Point: 30°   Wind: 15mph
Humidity: 46%   Direction: 320°NW
Pressure: 29.87"   Gusts: NA
Location:  32.6221°N, 81.0484°W
Report Text: KNBC 271856Z 32013KT 10SM BKN047 10/M01 A2987 RMK AO2 SLP116 T01001011 $
Loading
Personal Weather Stations






























Interactive Weather Map New forecast layout! Learn more

10-Day Weather Forecast

Advertisements
Track Severe Weather on mobile